<?xml version="1.0" encoding="UTF-8" standalone="no" ?>
<gpx xmlns="http://www.topografix.com/GPX/1/1" xmlns:xsi="http://www.w3.org/2001/XMLSchema-instance" xsi:schemaLocation="http://www.topografix.com/GPX/1/1 http://www.topografix.com/GPX/1/1/gpx.xsd" version="1.1" creator="VisuGPX - https://www.visugpx.com">
  <metadata>
    <name>2025-01-15  Randonnée TwoNav</name>
    <desc><![CDATA[2025-01-15_162044.trk]]></desc>
  </metadata>
  <trk>
    <name><![CDATA[2025-01-15  Randonnée TwoNav_1]]></name>
    <trkseg>
      <trkpt lat="48.21111" lon="6.71652">
        <ele>475.1</ele>
        <time>2025-01-15T15:20:44Z</time>
      </trkpt>
      <trkpt lat="48.21111" lon="6.71652">
        <ele>475.1</ele>
        <time>2025-01-15T15:20:44Z</time>
      </trkpt>
      <trkpt lat="48.21111" lon="6.7165">
        <ele>475.1</ele>
        <time>2025-01-15T15:20:45Z</time>
      </trkpt>
      <trkpt lat="48.21111" lon="6.71649">
        <ele>475.1</ele>
        <time>2025-01-15T15:20:46Z</time>
      </trkpt>
      <trkpt lat="48.21111" lon="6.71647">
        <ele>475</ele>
        <time>2025-01-15T15:20:47Z</time>
      </trkpt>
      <trkpt lat="48.2111" lon="6.71646">
        <ele>475</ele>
        <time>2025-01-15T15:20:48Z</time>
      </trkpt>
      <trkpt lat="48.21111" lon="6.71644">
        <ele>475</ele>
        <time>2025-01-15T15:20:49Z</time>
      </trkpt>
      <trkpt lat="48.2111" lon="6.71642">
        <ele>475</ele>
        <time>2025-01-15T15:20:50Z</time>
      </trkpt>
      <trkpt lat="48.21111" lon="6.7164">
        <ele>475</ele>
        <time>2025-01-15T15:20:51Z</time>
      </trkpt>
      <trkpt lat="48.21111" lon="6.71638">
        <ele>474.9</ele>
        <time>2025-01-15T15:20:52Z</time>
      </trkpt>
      <trkpt lat="48.21111" lon="6.71637">
        <ele>474.9</ele>
        <time>2025-01-15T15:20:53Z</time>
      </trkpt>
      <trkpt lat="48.21112" lon="6.71635">
        <ele>474.9</ele>
        <time>2025-01-15T15:20:54Z</time>
      </trkpt>
      <trkpt lat="48.21112" lon="6.71633">
        <ele>474.9</ele>
        <time>2025-01-15T15:20:55Z</time>
      </trkpt>
      <trkpt lat="48.21113" lon="6.71631">
        <ele>474.8</ele>
        <time>2025-01-15T15:20:56Z</time>
      </trkpt>
      <trkpt lat="48.21114" lon="6.71629">
        <ele>474.8</ele>
        <time>2025-01-15T15:20:57Z</time>
      </trkpt>
      <trkpt lat="48.21117" lon="6.71615">
        <ele>474.6</ele>
        <time>2025-01-15T15:21:05Z</time>
      </trkpt>
      <trkpt lat="48.2112" lon="6.71602">
        <ele>474.5</ele>
        <time>2025-01-15T15:21:13Z</time>
      </trkpt>
      <trkpt lat="48.21124" lon="6.71588">
        <ele>474.3</ele>
        <time>2025-01-15T15:21:21Z</time>
      </trkpt>
      <trkpt lat="48.21128" lon="6.71575">
        <ele>474.1</ele>
        <time>2025-01-15T15:21:29Z</time>
      </trkpt>
      <trkpt lat="48.21135" lon="6.71561">
        <ele>473.9</ele>
        <time>2025-01-15T15:21:34Z</time>
      </trkpt>
      <trkpt lat="48.2114" lon="6.71548">
        <ele>473.8</ele>
        <time>2025-01-15T15:21:40Z</time>
      </trkpt>
      <trkpt lat="48.21144" lon="6.71536">
        <ele>473.7</ele>
        <time>2025-01-15T15:21:46Z</time>
      </trkpt>
      <trkpt lat="48.21151" lon="6.71525">
        <ele>473.6</ele>
        <time>2025-01-15T15:21:53Z</time>
      </trkpt>
      <trkpt lat="48.21158" lon="6.71515">
        <ele>473.5</ele>
        <time>2025-01-15T15:22:00Z</time>
      </trkpt>
      <trkpt lat="48.21163" lon="6.71503">
        <ele>473.4</ele>
        <time>2025-01-15T15:22:07Z</time>
      </trkpt>
      <trkpt lat="48.21169" lon="6.71492">
        <ele>473.3</ele>
        <time>2025-01-15T15:22:14Z</time>
      </trkpt>
      <trkpt lat="48.21175" lon="6.71481">
        <ele>473.2</ele>
        <time>2025-01-15T15:22:21Z</time>
      </trkpt>
      <trkpt lat="48.21181" lon="6.71471">
        <ele>473.1</ele>
        <time>2025-01-15T15:22:28Z</time>
      </trkpt>
      <trkpt lat="48.21187" lon="6.7146">
        <ele>473.1</ele>
        <time>2025-01-15T15:22:35Z</time>
      </trkpt>
      <trkpt lat="48.21193" lon="6.7145">
        <ele>473</ele>
        <time>2025-01-15T15:22:42Z</time>
      </trkpt>
      <trkpt lat="48.21199" lon="6.71438">
        <ele>472.9</ele>
        <time>2025-01-15T15:22:50Z</time>
      </trkpt>
      <trkpt lat="48.21198" lon="6.71423">
        <ele>472.7</ele>
        <time>2025-01-15T15:22:57Z</time>
      </trkpt>
      <trkpt lat="48.21202" lon="6.7141">
        <ele>472.5</ele>
        <time>2025-01-15T15:23:04Z</time>
      </trkpt>
      <trkpt lat="48.21207" lon="6.71398">
        <ele>472.3</ele>
        <time>2025-01-15T15:23:11Z</time>
      </trkpt>
      <trkpt lat="48.21215" lon="6.7139">
        <ele>472</ele>
        <time>2025-01-15T15:23:18Z</time>
      </trkpt>
      <trkpt lat="48.21221" lon="6.7138">
        <ele>471.3</ele>
        <time>2025-01-15T15:23:25Z</time>
      </trkpt>
      <trkpt lat="48.21226" lon="6.71368">
        <ele>470.7</ele>
        <time>2025-01-15T15:23:32Z</time>
      </trkpt>
      <trkpt lat="48.21232" lon="6.71357">
        <ele>470.1</ele>
        <time>2025-01-15T15:23:39Z</time>
      </trkpt>
      <trkpt lat="48.21238" lon="6.71346">
        <ele>469.5</ele>
        <time>2025-01-15T15:23:46Z</time>
      </trkpt>
      <trkpt lat="48.21245" lon="6.71337">
        <ele>468.8</ele>
        <time>2025-01-15T15:23:53Z</time>
      </trkpt>
      <trkpt lat="48.21254" lon="6.71332">
        <ele>468.2</ele>
        <time>2025-01-15T15:24:03Z</time>
      </trkpt>
      <trkpt lat="48.21263" lon="6.71326">
        <ele>467.5</ele>
        <time>2025-01-15T15:24:12Z</time>
      </trkpt>
      <trkpt lat="48.21273" lon="6.71325">
        <ele>466.9</ele>
        <time>2025-01-15T15:24:19Z</time>
      </trkpt>
      <trkpt lat="48.21284" lon="6.71324">
        <ele>466.2</ele>
        <time>2025-01-15T15:24:26Z</time>
      </trkpt>
      <trkpt lat="48.21293" lon="6.71323">
        <ele>465.7</ele>
        <time>2025-01-15T15:24:33Z</time>
      </trkpt>
      <trkpt lat="48.21303" lon="6.71322">
        <ele>465.1</ele>
        <time>2025-01-15T15:24:40Z</time>
      </trkpt>
      <trkpt lat="48.21312" lon="6.71322">
        <ele>464.6</ele>
        <time>2025-01-15T15:24:47Z</time>
      </trkpt>
      <trkpt lat="48.21322" lon="6.71324">
        <ele>464.1</ele>
        <time>2025-01-15T15:24:55Z</time>
      </trkpt>
      <trkpt lat="48.21332" lon="6.71322">
        <ele>463.6</ele>
        <time>2025-01-15T15:25:02Z</time>
      </trkpt>
      <trkpt lat="48.2134" lon="6.71314">
        <ele>463.1</ele>
        <time>2025-01-15T15:25:07Z</time>
      </trkpt>
      <trkpt lat="48.21348" lon="6.71307">
        <ele>462.1</ele>
        <time>2025-01-15T15:25:14Z</time>
      </trkpt>
      <trkpt lat="48.21357" lon="6.71299">
        <ele>461.1</ele>
        <time>2025-01-15T15:25:21Z</time>
      </trkpt>
      <trkpt lat="48.21365" lon="6.71293">
        <ele>460.5</ele>
        <time>2025-01-15T15:25:28Z</time>
      </trkpt>
      <trkpt lat="48.21372" lon="6.71285">
        <ele>460.1</ele>
        <time>2025-01-15T15:25:35Z</time>
      </trkpt>
      <trkpt lat="48.21379" lon="6.71275">
        <ele>459.7</ele>
        <time>2025-01-15T15:25:42Z</time>
      </trkpt>
      <trkpt lat="48.21386" lon="6.71267">
        <ele>459.1</ele>
        <time>2025-01-15T15:25:49Z</time>
      </trkpt>
      <trkpt lat="48.21395" lon="6.71261">
        <ele>458.4</ele>
        <time>2025-01-15T15:25:57Z</time>
      </trkpt>
      <trkpt lat="48.21404" lon="6.71253">
        <ele>457.8</ele>
        <time>2025-01-15T15:26:05Z</time>
      </trkpt>
      <trkpt lat="48.21412" lon="6.71244">
        <ele>457.1</ele>
        <time>2025-01-15T15:26:13Z</time>
      </trkpt>
      <trkpt lat="48.2142" lon="6.71236">
        <ele>456.5</ele>
        <time>2025-01-15T15:26:21Z</time>
      </trkpt>
      <trkpt lat="48.21428" lon="6.71228">
        <ele>456</ele>
        <time>2025-01-15T15:26:28Z</time>
      </trkpt>
      <trkpt lat="48.21436" lon="6.71219">
        <ele>455.4</ele>
        <time>2025-01-15T15:26:36Z</time>
      </trkpt>
      <trkpt lat="48.21444" lon="6.71209">
        <ele>454.9</ele>
        <time>2025-01-15T15:26:44Z</time>
      </trkpt>
      <trkpt lat="48.21451" lon="6.71198">
        <ele>454.4</ele>
        <time>2025-01-15T15:26:52Z</time>
      </trkpt>
      <trkpt lat="48.21458" lon="6.71187">
        <ele>454</ele>
        <time>2025-01-15T15:27:00Z</time>
      </trkpt>
      <trkpt lat="48.21465" lon="6.71176">
        <ele>453.6</ele>
        <time>2025-01-15T15:27:08Z</time>
      </trkpt>
      <trkpt lat="48.21471" lon="6.71165">
        <ele>453.3</ele>
        <time>2025-01-15T15:27:16Z</time>
      </trkpt>
      <trkpt lat="48.21478" lon="6.71154">
        <ele>453</ele>
        <time>2025-01-15T15:27:24Z</time>
      </trkpt>
      <trkpt lat="48.21485" lon="6.71144">
        <ele>452.8</ele>
        <time>2025-01-15T15:27:32Z</time>
      </trkpt>
      <trkpt lat="48.21492" lon="6.71133">
        <ele>452.6</ele>
        <time>2025-01-15T15:27:40Z</time>
      </trkpt>
      <trkpt lat="48.21499" lon="6.71124">
        <ele>452.5</ele>
        <time>2025-01-15T15:27:48Z</time>
      </trkpt>
      <trkpt lat="48.21506" lon="6.71114">
        <ele>452.3</ele>
        <time>2025-01-15T15:27:56Z</time>
      </trkpt>
      <trkpt lat="48.21514" lon="6.71104">
        <ele>452.2</ele>
        <time>2025-01-15T15:28:04Z</time>
      </trkpt>
      <trkpt lat="48.21519" lon="6.71093">
        <ele>452.1</ele>
        <time>2025-01-15T15:28:11Z</time>
      </trkpt>
      <trkpt lat="48.21526" lon="6.71082">
        <ele>452.1</ele>
        <time>2025-01-15T15:28:18Z</time>
      </trkpt>
      <trkpt lat="48.21532" lon="6.71072">
        <ele>452.1</ele>
        <time>2025-01-15T15:28:25Z</time>
      </trkpt>
      <trkpt lat="48.21537" lon="6.71061">
        <ele>452.2</ele>
        <time>2025-01-15T15:28:32Z</time>
      </trkpt>
      <trkpt lat="48.21543" lon="6.7105">
        <ele>452.4</ele>
        <time>2025-01-15T15:28:39Z</time>
      </trkpt>
      <trkpt lat="48.21548" lon="6.71038">
        <ele>452.6</ele>
        <time>2025-01-15T15:28:46Z</time>
      </trkpt>
      <trkpt lat="48.21553" lon="6.71027">
        <ele>452.9</ele>
        <time>2025-01-15T15:28:53Z</time>
      </trkpt>
      <trkpt lat="48.2156" lon="6.71016">
        <ele>453.4</ele>
        <time>2025-01-15T15:29:01Z</time>
      </trkpt>
      <trkpt lat="48.21569" lon="6.71011">
        <ele>454</ele>
        <time>2025-01-15T15:29:11Z</time>
      </trkpt>
      <trkpt lat="48.21578" lon="6.71015">
        <ele>456.2</ele>
        <time>2025-01-15T15:29:22Z</time>
      </trkpt>
      <trkpt lat="48.21586" lon="6.71021">
        <ele>459.1</ele>
        <time>2025-01-15T15:29:35Z</time>
      </trkpt>
      <trkpt lat="48.21596" lon="6.71025">
        <ele>462.3</ele>
        <time>2025-01-15T15:29:49Z</time>
      </trkpt>
      <trkpt lat="48.21603" lon="6.71033">
        <ele>464.1</ele>
        <time>2025-01-15T15:29:59Z</time>
      </trkpt>
      <trkpt lat="48.21612" lon="6.71037">
        <ele>467.2</ele>
        <time>2025-01-15T15:30:12Z</time>
      </trkpt>
      <trkpt lat="48.21621" lon="6.71029">
        <ele>470.5</ele>
        <time>2025-01-15T15:30:21Z</time>
      </trkpt>
      <trkpt lat="48.2163" lon="6.71023">
        <ele>471.9</ele>
        <time>2025-01-15T15:30:32Z</time>
      </trkpt>
      <trkpt lat="48.21637" lon="6.71016">
        <ele>472.5</ele>
        <time>2025-01-15T15:30:43Z</time>
      </trkpt>
      <trkpt lat="48.21645" lon="6.71009">
        <ele>474.6</ele>
        <time>2025-01-15T15:30:56Z</time>
      </trkpt>
      <trkpt lat="48.21653" lon="6.71002">
        <ele>475.8</ele>
        <time>2025-01-15T15:31:08Z</time>
      </trkpt>
      <trkpt lat="48.21662" lon="6.70999">
        <ele>478.1</ele>
        <time>2025-01-15T15:31:18Z</time>
      </trkpt>
      <trkpt lat="48.21671" lon="6.70995">
        <ele>479.7</ele>
        <time>2025-01-15T15:31:31Z</time>
      </trkpt>
      <trkpt lat="48.21678" lon="6.71003">
        <ele>482.8</ele>
        <time>2025-01-15T15:31:45Z</time>
      </trkpt>
      <trkpt lat="48.21683" lon="6.71015">
        <ele>484.6</ele>
        <time>2025-01-15T15:32:02Z</time>
      </trkpt>
      <trkpt lat="48.21682" lon="6.71029">
        <ele>487.5</ele>
        <time>2025-01-15T15:32:15Z</time>
      </trkpt>
      <trkpt lat="48.21682" lon="6.7103">
        <ele>487.3</ele>
        <time>2025-01-15T15:32:20Z</time>
      </trkpt>
      <trkpt lat="48.21682" lon="6.7103">
        <ele>487</ele>
        <time>2025-01-15T15:32:21Z</time>
      </trkpt>
      <trkpt lat="48.21682" lon="6.7103">
        <ele>486.7</ele>
        <time>2025-01-15T15:32:22Z</time>
      </trkpt>
      <trkpt lat="48.21682" lon="6.71032">
        <ele>486.5</ele>
        <time>2025-01-15T15:32:25Z</time>
      </trkpt>
      <trkpt lat="48.21683" lon="6.71033">
        <ele>486.2</ele>
        <time>2025-01-15T15:32:26Z</time>
      </trkpt>
      <trkpt lat="48.21683" lon="6.71033">
        <ele>486</ele>
        <time>2025-01-15T15:32:32Z</time>
      </trkpt>
      <trkpt lat="48.21683" lon="6.71033">
        <ele>485.7</ele>
        <time>2025-01-15T15:32:33Z</time>
      </trkpt>
      <trkpt lat="48.21684" lon="6.71032">
        <ele>485.7</ele>
        <time>2025-01-15T15:32:34Z</time>
      </trkpt>
      <trkpt lat="48.21685" lon="6.71031">
        <ele>485.8</ele>
        <time>2025-01-15T15:32:35Z</time>
      </trkpt>
      <trkpt lat="48.21686" lon="6.71031">
        <ele>485.8</ele>
        <time>2025-01-15T15:32:36Z</time>
      </trkpt>
      <trkpt lat="48.21694" lon="6.71024">
        <ele>486.3</ele>
        <time>2025-01-15T15:32:44Z</time>
      </trkpt>
      <trkpt lat="48.21703" lon="6.71019">
        <ele>486.8</ele>
        <time>2025-01-15T15:32:53Z</time>
      </trkpt>
      <trkpt lat="48.21712" lon="6.71014">
        <ele>487.4</ele>
        <time>2025-01-15T15:33:01Z</time>
      </trkpt>
      <trkpt lat="48.21721" lon="6.7101">
        <ele>487.9</ele>
        <time>2025-01-15T15:33:09Z</time>
      </trkpt>
      <trkpt lat="48.2173" lon="6.71006">
        <ele>488.5</ele>
        <time>2025-01-15T15:33:17Z</time>
      </trkpt>
      <trkpt lat="48.21739" lon="6.71">
        <ele>489.2</ele>
        <time>2025-01-15T15:33:25Z</time>
      </trkpt>
      <trkpt lat="48.21748" lon="6.70994">
        <ele>490</ele>
        <time>2025-01-15T15:33:33Z</time>
      </trkpt>
      <trkpt lat="48.21757" lon="6.70988">
        <ele>490.8</ele>
        <time>2025-01-15T15:33:41Z</time>
      </trkpt>
      <trkpt lat="48.21765" lon="6.70982">
        <ele>491.4</ele>
        <time>2025-01-15T15:33:49Z</time>
      </trkpt>
      <trkpt lat="48.21774" lon="6.70977">
        <ele>491.9</ele>
        <time>2025-01-15T15:33:57Z</time>
      </trkpt>
      <trkpt lat="48.21784" lon="6.70974">
        <ele>492.4</ele>
        <time>2025-01-15T15:34:05Z</time>
      </trkpt>
      <trkpt lat="48.21793" lon="6.70971">
        <ele>492.9</ele>
        <time>2025-01-15T15:34:13Z</time>
      </trkpt>
      <trkpt lat="48.21802" lon="6.70969">
        <ele>493.3</ele>
        <time>2025-01-15T15:34:21Z</time>
      </trkpt>
      <trkpt lat="48.21811" lon="6.70968">
        <ele>493.9</ele>
        <time>2025-01-15T15:34:29Z</time>
      </trkpt>
      <trkpt lat="48.21821" lon="6.70968">
        <ele>494.6</ele>
        <time>2025-01-15T15:34:37Z</time>
      </trkpt>
      <trkpt lat="48.21831" lon="6.70966">
        <ele>495.3</ele>
        <time>2025-01-15T15:34:45Z</time>
      </trkpt>
      <trkpt lat="48.2184" lon="6.70966">
        <ele>496</ele>
        <time>2025-01-15T15:34:53Z</time>
      </trkpt>
      <trkpt lat="48.2185" lon="6.70969">
        <ele>496.6</ele>
        <time>2025-01-15T15:35:01Z</time>
      </trkpt>
      <trkpt lat="48.21858" lon="6.70976">
        <ele>497.3</ele>
        <time>2025-01-15T15:35:08Z</time>
      </trkpt>
      <trkpt lat="48.21866" lon="6.70986">
        <ele>498</ele>
        <time>2025-01-15T15:35:16Z</time>
      </trkpt>
      <trkpt lat="48.21872" lon="6.70998">
        <ele>498.6</ele>
        <time>2025-01-15T15:35:24Z</time>
      </trkpt>
      <trkpt lat="48.21877" lon="6.71011">
        <ele>499.2</ele>
        <time>2025-01-15T15:35:32Z</time>
      </trkpt>
      <trkpt lat="48.21881" lon="6.71025">
        <ele>499.9</ele>
        <time>2025-01-15T15:35:40Z</time>
      </trkpt>
      <trkpt lat="48.21884" lon="6.71039">
        <ele>500.6</ele>
        <time>2025-01-15T15:35:48Z</time>
      </trkpt>
      <trkpt lat="48.21887" lon="6.71052">
        <ele>501</ele>
        <time>2025-01-15T15:35:56Z</time>
      </trkpt>
      <trkpt lat="48.21891" lon="6.71064">
        <ele>501.4</ele>
        <time>2025-01-15T15:36:03Z</time>
      </trkpt>
      <trkpt lat="48.21897" lon="6.71076">
        <ele>501.6</ele>
        <time>2025-01-15T15:36:11Z</time>
      </trkpt>
      <trkpt lat="48.21904" lon="6.71085">
        <ele>501.8</ele>
        <time>2025-01-15T15:36:19Z</time>
      </trkpt>
      <trkpt lat="48.21895" lon="6.7109">
        <ele>505</ele>
        <time>2025-01-15T15:36:33Z</time>
      </trkpt>
      <trkpt lat="48.21885" lon="6.71088">
        <ele>505</ele>
        <time>2025-01-15T15:36:42Z</time>
      </trkpt>
      <trkpt lat="48.21876" lon="6.71082">
        <ele>505.2</ele>
        <time>2025-01-15T15:36:50Z</time>
      </trkpt>
      <trkpt lat="48.21869" lon="6.71072">
        <ele>504</ele>
        <time>2025-01-15T15:37:00Z</time>
      </trkpt>
      <trkpt lat="48.21861" lon="6.71064">
        <ele>501.8</ele>
        <time>2025-01-15T15:37:08Z</time>
      </trkpt>
      <trkpt lat="48.21852" lon="6.71059">
        <ele>500</ele>
        <time>2025-01-15T15:37:16Z</time>
      </trkpt>
      <trkpt lat="48.21841" lon="6.71058">
        <ele>496.8</ele>
        <time>2025-01-15T15:37:25Z</time>
      </trkpt>
      <trkpt lat="48.21832" lon="6.71058">
        <ele>493.8</ele>
        <time>2025-01-15T15:37:33Z</time>
      </trkpt>
      <trkpt lat="48.21822" lon="6.71059">
        <ele>490.9</ele>
        <time>2025-01-15T15:37:41Z</time>
      </trkpt>
      <trkpt lat="48.21813" lon="6.71065">
        <ele>493.2</ele>
        <time>2025-01-15T15:37:49Z</time>
      </trkpt>
      <trkpt lat="48.21804" lon="6.7107">
        <ele>493.3</ele>
        <time>2025-01-15T15:37:56Z</time>
      </trkpt>
      <trkpt lat="48.21795" lon="6.71078">
        <ele>495.3</ele>
        <time>2025-01-15T15:38:04Z</time>
      </trkpt>
      <trkpt lat="48.21788" lon="6.71085">
        <ele>498.9</ele>
        <time>2025-01-15T15:38:12Z</time>
      </trkpt>
      <trkpt lat="48.2178" lon="6.71094">
        <ele>501.5</ele>
        <time>2025-01-15T15:38:20Z</time>
      </trkpt>
      <trkpt lat="48.21773" lon="6.71105">
        <ele>504.8</ele>
        <time>2025-01-15T15:38:29Z</time>
      </trkpt>
      <trkpt lat="48.21766" lon="6.71114">
        <ele>507.3</ele>
        <time>2025-01-15T15:38:37Z</time>
      </trkpt>
      <trkpt lat="48.2176" lon="6.71125">
        <ele>511.1</ele>
        <time>2025-01-15T15:38:48Z</time>
      </trkpt>
      <trkpt lat="48.21754" lon="6.71138">
        <ele>513</ele>
        <time>2025-01-15T15:38:55Z</time>
      </trkpt>
      <trkpt lat="48.21748" lon="6.71149">
        <ele>514.2</ele>
        <time>2025-01-15T15:39:02Z</time>
      </trkpt>
      <trkpt lat="48.21742" lon="6.7116">
        <ele>513.7</ele>
        <time>2025-01-15T15:39:09Z</time>
      </trkpt>
      <trkpt lat="48.21736" lon="6.7117">
        <ele>514</ele>
        <time>2025-01-15T15:39:16Z</time>
      </trkpt>
      <trkpt lat="48.21731" lon="6.71182">
        <ele>512.2</ele>
        <time>2025-01-15T15:39:23Z</time>
      </trkpt>
      <trkpt lat="48.21728" lon="6.71196">
        <ele>514.7</ele>
        <time>2025-01-15T15:39:31Z</time>
      </trkpt>
      <trkpt lat="48.21726" lon="6.71204">
        <ele>514.1</ele>
        <time>2025-01-15T15:39:47Z</time>
      </trkpt>
      <trkpt lat="48.21725" lon="6.71205">
        <ele>515.3</ele>
        <time>2025-01-15T15:39:48Z</time>
      </trkpt>
      <trkpt lat="48.21725" lon="6.71205">
        <ele>515.7</ele>
        <time>2025-01-15T15:39:49Z</time>
      </trkpt>
      <trkpt lat="48.21724" lon="6.71206">
        <ele>516.1</ele>
        <time>2025-01-15T15:39:50Z</time>
      </trkpt>
      <trkpt lat="48.21724" lon="6.71206">
        <ele>514.5</ele>
        <time>2025-01-15T15:39:51Z</time>
      </trkpt>
      <trkpt lat="48.2172" lon="6.71205">
        <ele>512.9</ele>
        <time>2025-01-15T15:40:02Z</time>
      </trkpt>
      <trkpt lat="48.2172" lon="6.71205">
        <ele>513.3</ele>
        <time>2025-01-15T15:40:03Z</time>
      </trkpt>
      <trkpt lat="48.2172" lon="6.71205">
        <ele>512.8</ele>
        <time>2025-01-15T15:40:04Z</time>
      </trkpt>
      <trkpt lat="48.2172" lon="6.71205">
        <ele>514</ele>
        <time>2025-01-15T15:40:08Z</time>
      </trkpt>
      <trkpt lat="48.21719" lon="6.71205">
        <ele>513.5</ele>
        <time>2025-01-15T15:40:09Z</time>
      </trkpt>
      <trkpt lat="48.21711" lon="6.71197">
        <ele>508</ele>
        <time>2025-01-15T15:40:23Z</time>
      </trkpt>
      <trkpt lat="48.21706" lon="6.71186">
        <ele>503.3</ele>
        <time>2025-01-15T15:40:39Z</time>
      </trkpt>
      <trkpt lat="48.21698" lon="6.71193">
        <ele>500.2</ele>
        <time>2025-01-15T15:40:50Z</time>
      </trkpt>
      <trkpt lat="48.21694" lon="6.71206">
        <ele>500.4</ele>
        <time>2025-01-15T15:41:00Z</time>
      </trkpt>
      <trkpt lat="48.21689" lon="6.71219">
        <ele>498.9</ele>
        <time>2025-01-15T15:41:09Z</time>
      </trkpt>
      <trkpt lat="48.21682" lon="6.7123">
        <ele>496.6</ele>
        <time>2025-01-15T15:41:24Z</time>
      </trkpt>
      <trkpt lat="48.21677" lon="6.71242">
        <ele>493.8</ele>
        <time>2025-01-15T15:41:36Z</time>
      </trkpt>
      <trkpt lat="48.21677" lon="6.7125">
        <ele>493.7</ele>
        <time>2025-01-15T15:41:45Z</time>
      </trkpt>
      <trkpt lat="48.21677" lon="6.7125">
        <ele>494.1</ele>
        <time>2025-01-15T15:41:46Z</time>
      </trkpt>
      <trkpt lat="48.21677" lon="6.7125">
        <ele>494.4</ele>
        <time>2025-01-15T15:41:47Z</time>
      </trkpt>
      <trkpt lat="48.21677" lon="6.7125">
        <ele>494.8</ele>
        <time>2025-01-15T15:41:48Z</time>
      </trkpt>
      <trkpt lat="48.21677" lon="6.7125">
        <ele>495.2</ele>
        <time>2025-01-15T15:41:49Z</time>
      </trkpt>
      <trkpt lat="48.21677" lon="6.7125">
        <ele>495.6</ele>
        <time>2025-01-15T15:41:53Z</time>
      </trkpt>
      <trkpt lat="48.21677" lon="6.7125">
        <ele>495.9</ele>
        <time>2025-01-15T15:41:54Z</time>
      </trkpt>
      <trkpt lat="48.21676" lon="6.71249">
        <ele>496.3</ele>
        <time>2025-01-15T15:42:22Z</time>
      </trkpt>
      <trkpt lat="48.21676" lon="6.71249">
        <ele>496.7</ele>
        <time>2025-01-15T15:42:23Z</time>
      </trkpt>
      <trkpt lat="48.21682" lon="6.71261">
        <ele>499.3</ele>
        <time>2025-01-15T15:42:39Z</time>
      </trkpt>
      <trkpt lat="48.21684" lon="6.71274">
        <ele>499.9</ele>
        <time>2025-01-15T15:42:47Z</time>
      </trkpt>
      <trkpt lat="48.21688" lon="6.71287">
        <ele>500.5</ele>
        <time>2025-01-15T15:42:56Z</time>
      </trkpt>
      <trkpt lat="48.21691" lon="6.713">
        <ele>500.8</ele>
        <time>2025-01-15T15:43:08Z</time>
      </trkpt>
      <trkpt lat="48.2169" lon="6.71314">
        <ele>499.3</ele>
        <time>2025-01-15T15:43:24Z</time>
      </trkpt>
      <trkpt lat="48.2168" lon="6.71308">
        <ele>494.1</ele>
        <time>2025-01-15T15:43:35Z</time>
      </trkpt>
      <trkpt lat="48.21672" lon="6.713">
        <ele>491.1</ele>
        <time>2025-01-15T15:43:44Z</time>
      </trkpt>
      <trkpt lat="48.21664" lon="6.71294">
        <ele>489</ele>
        <time>2025-01-15T15:44:00Z</time>
      </trkpt>
      <trkpt lat="48.21665" lon="6.71309">
        <ele>487.9</ele>
        <time>2025-01-15T15:44:17Z</time>
      </trkpt>
      <trkpt lat="48.21668" lon="6.71322">
        <ele>488.4</ele>
        <time>2025-01-15T15:44:26Z</time>
      </trkpt>
      <trkpt lat="48.21659" lon="6.7132">
        <ele>485.3</ele>
        <time>2025-01-15T15:44:50Z</time>
      </trkpt>
      <trkpt lat="48.21651" lon="6.71311">
        <ele>483.2</ele>
        <time>2025-01-15T15:44:57Z</time>
      </trkpt>
      <trkpt lat="48.21645" lon="6.713">
        <ele>481.8</ele>
        <time>2025-01-15T15:45:03Z</time>
      </trkpt>
      <trkpt lat="48.2164" lon="6.71288">
        <ele>480.5</ele>
        <time>2025-01-15T15:45:11Z</time>
      </trkpt>
      <trkpt lat="48.21635" lon="6.71275">
        <ele>479.5</ele>
        <time>2025-01-15T15:45:21Z</time>
      </trkpt>
      <trkpt lat="48.21629" lon="6.71263">
        <ele>478.5</ele>
        <time>2025-01-15T15:45:29Z</time>
      </trkpt>
      <trkpt lat="48.21626" lon="6.71249">
        <ele>478.7</ele>
        <time>2025-01-15T15:45:37Z</time>
      </trkpt>
      <trkpt lat="48.21624" lon="6.71234">
        <ele>479</ele>
        <time>2025-01-15T15:45:44Z</time>
      </trkpt>
      <trkpt lat="48.21624" lon="6.71219">
        <ele>479.2</ele>
        <time>2025-01-15T15:45:49Z</time>
      </trkpt>
      <trkpt lat="48.21625" lon="6.71205">
        <ele>479.5</ele>
        <time>2025-01-15T15:45:58Z</time>
      </trkpt>
      <trkpt lat="48.21626" lon="6.7119">
        <ele>479.7</ele>
        <time>2025-01-15T15:46:06Z</time>
      </trkpt>
      <trkpt lat="48.21625" lon="6.71176">
        <ele>479.9</ele>
        <time>2025-01-15T15:46:16Z</time>
      </trkpt>
      <trkpt lat="48.21625" lon="6.71168">
        <ele>480.1</ele>
        <time>2025-01-15T15:46:35Z</time>
      </trkpt>
      <trkpt lat="48.21625" lon="6.71168">
        <ele>480.1</ele>
        <time>2025-01-15T15:46:36Z</time>
      </trkpt>
      <trkpt lat="48.21625" lon="6.71168">
        <ele>480.1</ele>
        <time>2025-01-15T15:46:37Z</time>
      </trkpt>
      <trkpt lat="48.21624" lon="6.71168">
        <ele>480.1</ele>
        <time>2025-01-15T15:46:59Z</time>
      </trkpt>
      <trkpt lat="48.21624" lon="6.71168">
        <ele>480.1</ele>
        <time>2025-01-15T15:47:00Z</time>
      </trkpt>
      <trkpt lat="48.21624" lon="6.71163">
        <ele>480.2</ele>
        <time>2025-01-15T15:47:10Z</time>
      </trkpt>
      <trkpt lat="48.21624" lon="6.71163">
        <ele>480.2</ele>
        <time>2025-01-15T15:47:11Z</time>
      </trkpt>
      <trkpt lat="48.21624" lon="6.71163">
        <ele>480.2</ele>
        <time>2025-01-15T15:47:12Z</time>
      </trkpt>
      <trkpt lat="48.21624" lon="6.71163">
        <ele>480.2</ele>
        <time>2025-01-15T15:47:17Z</time>
      </trkpt>
      <trkpt lat="48.21625" lon="6.71161">
        <ele>480.2</ele>
        <time>2025-01-15T15:47:18Z</time>
      </trkpt>
      <trkpt lat="48.21629" lon="6.71148">
        <ele>480.4</ele>
        <time>2025-01-15T15:47:27Z</time>
      </trkpt>
      <trkpt lat="48.21632" lon="6.7114">
        <ele>480.6</ele>
        <time>2025-01-15T15:47:34Z</time>
      </trkpt>
      <trkpt lat="48.21632" lon="6.7114">
        <ele>480.6</ele>
        <time>2025-01-15T15:47:35Z</time>
      </trkpt>
      <trkpt lat="48.21632" lon="6.7114">
        <ele>480.6</ele>
        <time>2025-01-15T15:47:36Z</time>
      </trkpt>
      <trkpt lat="48.21631" lon="6.71141">
        <ele>480.6</ele>
        <time>2025-01-15T15:47:40Z</time>
      </trkpt>
      <trkpt lat="48.21631" lon="6.71143">
        <ele>480.6</ele>
        <time>2025-01-15T15:47:41Z</time>
      </trkpt>
      <trkpt lat="48.21627" lon="6.71157">
        <ele>480.8</ele>
        <time>2025-01-15T15:47:49Z</time>
      </trkpt>
      <trkpt lat="48.21623" lon="6.71171">
        <ele>481</ele>
        <time>2025-01-15T15:47:56Z</time>
      </trkpt>
      <trkpt lat="48.21618" lon="6.71184">
        <ele>480.7</ele>
        <time>2025-01-15T15:48:03Z</time>
      </trkpt>
      <trkpt lat="48.21616" lon="6.71197">
        <ele>480.4</ele>
        <time>2025-01-15T15:48:10Z</time>
      </trkpt>
      <trkpt lat="48.21614" lon="6.71212">
        <ele>480</ele>
        <time>2025-01-15T15:48:17Z</time>
      </trkpt>
      <trkpt lat="48.21613" lon="6.71225">
        <ele>479.6</ele>
        <time>2025-01-15T15:48:25Z</time>
      </trkpt>
      <trkpt lat="48.21613" lon="6.7124">
        <ele>479.2</ele>
        <time>2025-01-15T15:48:33Z</time>
      </trkpt>
      <trkpt lat="48.21613" lon="6.71254">
        <ele>478.8</ele>
        <time>2025-01-15T15:48:40Z</time>
      </trkpt>
      <trkpt lat="48.21613" lon="6.71268">
        <ele>478.4</ele>
        <time>2025-01-15T15:48:47Z</time>
      </trkpt>
      <trkpt lat="48.21616" lon="6.71282">
        <ele>478.2</ele>
        <time>2025-01-15T15:48:55Z</time>
      </trkpt>
      <trkpt lat="48.21618" lon="6.71296">
        <ele>478</ele>
        <time>2025-01-15T15:49:03Z</time>
      </trkpt>
      <trkpt lat="48.21621" lon="6.71311">
        <ele>477.8</ele>
        <time>2025-01-15T15:49:11Z</time>
      </trkpt>
      <trkpt lat="48.21624" lon="6.71324">
        <ele>477.6</ele>
        <time>2025-01-15T15:49:19Z</time>
      </trkpt>
      <trkpt lat="48.21627" lon="6.71339">
        <ele>477.5</ele>
        <time>2025-01-15T15:49:27Z</time>
      </trkpt>
      <trkpt lat="48.21631" lon="6.71352">
        <ele>477.4</ele>
        <time>2025-01-15T15:49:35Z</time>
      </trkpt>
      <trkpt lat="48.21635" lon="6.71364">
        <ele>477.2</ele>
        <time>2025-01-15T15:49:44Z</time>
      </trkpt>
      <trkpt lat="48.21641" lon="6.71376">
        <ele>477.1</ele>
        <time>2025-01-15T15:49:52Z</time>
      </trkpt>
      <trkpt lat="48.21646" lon="6.71388">
        <ele>477.2</ele>
        <time>2025-01-15T15:49:59Z</time>
      </trkpt>
      <trkpt lat="48.21651" lon="6.71399">
        <ele>477.4</ele>
        <time>2025-01-15T15:50:06Z</time>
      </trkpt>
      <trkpt lat="48.21657" lon="6.7141">
        <ele>477.9</ele>
        <time>2025-01-15T15:50:13Z</time>
      </trkpt>
      <trkpt lat="48.21663" lon="6.71421">
        <ele>478.6</ele>
        <time>2025-01-15T15:50:20Z</time>
      </trkpt>
      <trkpt lat="48.2167" lon="6.71431">
        <ele>479.3</ele>
        <time>2025-01-15T15:50:27Z</time>
      </trkpt>
      <trkpt lat="48.21677" lon="6.7144">
        <ele>480.2</ele>
        <time>2025-01-15T15:50:34Z</time>
      </trkpt>
      <trkpt lat="48.21685" lon="6.71449">
        <ele>481.2</ele>
        <time>2025-01-15T15:50:41Z</time>
      </trkpt>
      <trkpt lat="48.21693" lon="6.71456">
        <ele>482.1</ele>
        <time>2025-01-15T15:50:48Z</time>
      </trkpt>
      <trkpt lat="48.21702" lon="6.71461">
        <ele>483</ele>
        <time>2025-01-15T15:50:55Z</time>
      </trkpt>
      <trkpt lat="48.21711" lon="6.71464">
        <ele>484</ele>
        <time>2025-01-15T15:51:02Z</time>
      </trkpt>
      <trkpt lat="48.2172" lon="6.71468">
        <ele>485.1</ele>
        <time>2025-01-15T15:51:09Z</time>
      </trkpt>
      <trkpt lat="48.21729" lon="6.71472">
        <ele>486.1</ele>
        <time>2025-01-15T15:51:15Z</time>
      </trkpt>
      <trkpt lat="48.21738" lon="6.71476">
        <ele>487</ele>
        <time>2025-01-15T15:51:22Z</time>
      </trkpt>
      <trkpt lat="48.21748" lon="6.71478">
        <ele>488</ele>
        <time>2025-01-15T15:51:30Z</time>
      </trkpt>
      <trkpt lat="48.21757" lon="6.71481">
        <ele>488.9</ele>
        <time>2025-01-15T15:51:37Z</time>
      </trkpt>
      <trkpt lat="48.21767" lon="6.71481">
        <ele>489.9</ele>
        <time>2025-01-15T15:51:44Z</time>
      </trkpt>
      <trkpt lat="48.21777" lon="6.71484">
        <ele>491</ele>
        <time>2025-01-15T15:51:51Z</time>
      </trkpt>
      <trkpt lat="48.21787" lon="6.71485">
        <ele>492</ele>
        <time>2025-01-15T15:51:58Z</time>
      </trkpt>
      <trkpt lat="48.21797" lon="6.71485">
        <ele>493.1</ele>
        <time>2025-01-15T15:52:06Z</time>
      </trkpt>
      <trkpt lat="48.21807" lon="6.71486">
        <ele>494</ele>
        <time>2025-01-15T15:52:14Z</time>
      </trkpt>
      <trkpt lat="48.21817" lon="6.71486">
        <ele>494.9</ele>
        <time>2025-01-15T15:52:21Z</time>
      </trkpt>
      <trkpt lat="48.21826" lon="6.71486">
        <ele>495.5</ele>
        <time>2025-01-15T15:52:27Z</time>
      </trkpt>
      <trkpt lat="48.21836" lon="6.71487">
        <ele>495.9</ele>
        <time>2025-01-15T15:52:34Z</time>
      </trkpt>
      <trkpt lat="48.21846" lon="6.71486">
        <ele>495.1</ele>
        <time>2025-01-15T15:52:41Z</time>
      </trkpt>
      <trkpt lat="48.21856" lon="6.71486">
        <ele>494.4</ele>
        <time>2025-01-15T15:52:48Z</time>
      </trkpt>
      <trkpt lat="48.21865" lon="6.71485">
        <ele>493.7</ele>
        <time>2025-01-15T15:52:55Z</time>
      </trkpt>
      <trkpt lat="48.21876" lon="6.71482">
        <ele>492.9</ele>
        <time>2025-01-15T15:53:03Z</time>
      </trkpt>
      <trkpt lat="48.21885" lon="6.71482">
        <ele>492.1</ele>
        <time>2025-01-15T15:53:10Z</time>
      </trkpt>
      <trkpt lat="48.21894" lon="6.71483">
        <ele>491.2</ele>
        <time>2025-01-15T15:53:18Z</time>
      </trkpt>
      <trkpt lat="48.21903" lon="6.7148">
        <ele>490.2</ele>
        <time>2025-01-15T15:53:25Z</time>
      </trkpt>
      <trkpt lat="48.21912" lon="6.71475">
        <ele>489.2</ele>
        <time>2025-01-15T15:53:32Z</time>
      </trkpt>
      <trkpt lat="48.21919" lon="6.71467">
        <ele>488.2</ele>
        <time>2025-01-15T15:53:39Z</time>
      </trkpt>
      <trkpt lat="48.21927" lon="6.71459">
        <ele>487.2</ele>
        <time>2025-01-15T15:53:47Z</time>
      </trkpt>
      <trkpt lat="48.21936" lon="6.71454">
        <ele>486.3</ele>
        <time>2025-01-15T15:53:54Z</time>
      </trkpt>
      <trkpt lat="48.21945" lon="6.71448">
        <ele>485.3</ele>
        <time>2025-01-15T15:54:01Z</time>
      </trkpt>
      <trkpt lat="48.21955" lon="6.71446">
        <ele>484.4</ele>
        <time>2025-01-15T15:54:07Z</time>
      </trkpt>
      <trkpt lat="48.21964" lon="6.7144">
        <ele>483.4</ele>
        <time>2025-01-15T15:54:14Z</time>
      </trkpt>
      <trkpt lat="48.21972" lon="6.71433">
        <ele>482.5</ele>
        <time>2025-01-15T15:54:21Z</time>
      </trkpt>
      <trkpt lat="48.21981" lon="6.71426">
        <ele>481.6</ele>
        <time>2025-01-15T15:54:28Z</time>
      </trkpt>
      <trkpt lat="48.21989" lon="6.71417">
        <ele>480.7</ele>
        <time>2025-01-15T15:54:35Z</time>
      </trkpt>
      <trkpt lat="48.21996" lon="6.71409">
        <ele>479.9</ele>
        <time>2025-01-15T15:54:42Z</time>
      </trkpt>
      <trkpt lat="48.22005" lon="6.71402">
        <ele>479.2</ele>
        <time>2025-01-15T15:54:49Z</time>
      </trkpt>
      <trkpt lat="48.22015" lon="6.71397">
        <ele>478.5</ele>
        <time>2025-01-15T15:54:56Z</time>
      </trkpt>
      <trkpt lat="48.22024" lon="6.71391">
        <ele>478</ele>
        <time>2025-01-15T15:55:03Z</time>
      </trkpt>
      <trkpt lat="48.22034" lon="6.71385">
        <ele>477.5</ele>
        <time>2025-01-15T15:55:10Z</time>
      </trkpt>
      <trkpt lat="48.22043" lon="6.71381">
        <ele>477</ele>
        <time>2025-01-15T15:55:17Z</time>
      </trkpt>
      <trkpt lat="48.22051" lon="6.71375">
        <ele>476.7</ele>
        <time>2025-01-15T15:55:24Z</time>
      </trkpt>
      <trkpt lat="48.2206" lon="6.71369">
        <ele>476.3</ele>
        <time>2025-01-15T15:55:31Z</time>
      </trkpt>
      <trkpt lat="48.22068" lon="6.71362">
        <ele>475.9</ele>
        <time>2025-01-15T15:55:38Z</time>
      </trkpt>
      <trkpt lat="48.22077" lon="6.71357">
        <ele>475.4</ele>
        <time>2025-01-15T15:55:45Z</time>
      </trkpt>
      <trkpt lat="48.22085" lon="6.71349">
        <ele>474.9</ele>
        <time>2025-01-15T15:55:51Z</time>
      </trkpt>
      <trkpt lat="48.22094" lon="6.71341">
        <ele>474.3</ele>
        <time>2025-01-15T15:55:58Z</time>
      </trkpt>
      <trkpt lat="48.22101" lon="6.71331">
        <ele>473.7</ele>
        <time>2025-01-15T15:56:06Z</time>
      </trkpt>
      <trkpt lat="48.22107" lon="6.7132">
        <ele>473</ele>
        <time>2025-01-15T15:56:13Z</time>
      </trkpt>
      <trkpt lat="48.22112" lon="6.71309">
        <ele>472.4</ele>
        <time>2025-01-15T15:56:20Z</time>
      </trkpt>
      <trkpt lat="48.22115" lon="6.713">
        <ele>471.9</ele>
        <time>2025-01-15T15:56:29Z</time>
      </trkpt>
      <trkpt lat="48.22115" lon="6.713">
        <ele>471.8</ele>
        <time>2025-01-15T15:56:30Z</time>
      </trkpt>
      <trkpt lat="48.22115" lon="6.71299">
        <ele>471.8</ele>
        <time>2025-01-15T15:56:31Z</time>
      </trkpt>
      <trkpt lat="48.22116" lon="6.71298">
        <ele>471.7</ele>
        <time>2025-01-15T15:56:32Z</time>
      </trkpt>
      <trkpt lat="48.22116" lon="6.71296">
        <ele>471.6</ele>
        <time>2025-01-15T15:56:33Z</time>
      </trkpt>
      <trkpt lat="48.22117" lon="6.71295">
        <ele>471.6</ele>
        <time>2025-01-15T15:56:34Z</time>
      </trkpt>
      <trkpt lat="48.22124" lon="6.71285">
        <ele>470.9</ele>
        <time>2025-01-15T15:56:41Z</time>
      </trkpt>
      <trkpt lat="48.2213" lon="6.71273">
        <ele>470.1</ele>
        <time>2025-01-15T15:56:49Z</time>
      </trkpt>
      <trkpt lat="48.22137" lon="6.71262">
        <ele>469.4</ele>
        <time>2025-01-15T15:56:57Z</time>
      </trkpt>
      <trkpt lat="48.22143" lon="6.71251">
        <ele>468.8</ele>
        <time>2025-01-15T15:57:05Z</time>
      </trkpt>
      <trkpt lat="48.22147" lon="6.71238">
        <ele>468.2</ele>
        <time>2025-01-15T15:57:13Z</time>
      </trkpt>
      <trkpt lat="48.22149" lon="6.71224">
        <ele>467.4</ele>
        <time>2025-01-15T15:57:21Z</time>
      </trkpt>
      <trkpt lat="48.22151" lon="6.71217">
        <ele>467.1</ele>
        <time>2025-01-15T15:57:29Z</time>
      </trkpt>
      <trkpt lat="48.22151" lon="6.71217">
        <ele>467.1</ele>
        <time>2025-01-15T15:57:30Z</time>
      </trkpt>
      <trkpt lat="48.22151" lon="6.71217">
        <ele>467</ele>
        <time>2025-01-15T15:57:31Z</time>
      </trkpt>
      <trkpt lat="48.22151" lon="6.71216">
        <ele>467</ele>
        <time>2025-01-15T15:57:32Z</time>
      </trkpt>
      <trkpt lat="48.22152" lon="6.71215">
        <ele>466.9</ele>
        <time>2025-01-15T15:57:33Z</time>
      </trkpt>
      <trkpt lat="48.22154" lon="6.71201">
        <ele>466.2</ele>
        <time>2025-01-15T15:57:41Z</time>
      </trkpt>
      <trkpt lat="48.22155" lon="6.71187">
        <ele>465.5</ele>
        <time>2025-01-15T15:57:49Z</time>
      </trkpt>
      <trkpt lat="48.22154" lon="6.71185">
        <ele>465.4</ele>
        <time>2025-01-15T15:57:52Z</time>
      </trkpt>
      <trkpt lat="48.22154" lon="6.71184">
        <ele>465.3</ele>
        <time>2025-01-15T15:57:53Z</time>
      </trkpt>
      <trkpt lat="48.22154" lon="6.71182">
        <ele>465.2</ele>
        <time>2025-01-15T15:57:54Z</time>
      </trkpt>
      <trkpt lat="48.22154" lon="6.7118">
        <ele>465.1</ele>
        <time>2025-01-15T15:57:55Z</time>
      </trkpt>
      <trkpt lat="48.22154" lon="6.71179">
        <ele>465</ele>
        <time>2025-01-15T15:57:56Z</time>
      </trkpt>
      <trkpt lat="48.22154" lon="6.71165">
        <ele>464.4</ele>
        <time>2025-01-15T15:58:06Z</time>
      </trkpt>
      <trkpt lat="48.22156" lon="6.71151">
        <ele>463.8</ele>
        <time>2025-01-15T15:58:14Z</time>
      </trkpt>
      <trkpt lat="48.22156" lon="6.71135">
        <ele>463.2</ele>
        <time>2025-01-15T15:58:22Z</time>
      </trkpt>
      <trkpt lat="48.22156" lon="6.71121">
        <ele>462.7</ele>
        <time>2025-01-15T15:58:29Z</time>
      </trkpt>
      <trkpt lat="48.22154" lon="6.71107">
        <ele>462.2</ele>
        <time>2025-01-15T15:58:36Z</time>
      </trkpt>
      <trkpt lat="48.22152" lon="6.71093">
        <ele>461.8</ele>
        <time>2025-01-15T15:58:43Z</time>
      </trkpt>
      <trkpt lat="48.22148" lon="6.71081">
        <ele>461.4</ele>
        <time>2025-01-15T15:58:50Z</time>
      </trkpt>
      <trkpt lat="48.22143" lon="6.71068">
        <ele>461.1</ele>
        <time>2025-01-15T15:58:58Z</time>
      </trkpt>
      <trkpt lat="48.22138" lon="6.71055">
        <ele>460.7</ele>
        <time>2025-01-15T15:59:06Z</time>
      </trkpt>
      <trkpt lat="48.22131" lon="6.71044">
        <ele>460.5</ele>
        <time>2025-01-15T15:59:13Z</time>
      </trkpt>
      <trkpt lat="48.22125" lon="6.71033">
        <ele>460.2</ele>
        <time>2025-01-15T15:59:20Z</time>
      </trkpt>
      <trkpt lat="48.22119" lon="6.71023">
        <ele>459.9</ele>
        <time>2025-01-15T15:59:27Z</time>
      </trkpt>
      <trkpt lat="48.22112" lon="6.71012">
        <ele>459.4</ele>
        <time>2025-01-15T15:59:35Z</time>
      </trkpt>
      <trkpt lat="48.22106" lon="6.71001">
        <ele>458.9</ele>
        <time>2025-01-15T15:59:43Z</time>
      </trkpt>
      <trkpt lat="48.22099" lon="6.70991">
        <ele>458.4</ele>
        <time>2025-01-15T15:59:52Z</time>
      </trkpt>
      <trkpt lat="48.22092" lon="6.70982">
        <ele>457.8</ele>
        <time>2025-01-15T15:59:59Z</time>
      </trkpt>
      <trkpt lat="48.22085" lon="6.70973">
        <ele>457.2</ele>
        <time>2025-01-15T16:00:06Z</time>
      </trkpt>
      <trkpt lat="48.22078" lon="6.70965">
        <ele>456.6</ele>
        <time>2025-01-15T16:00:13Z</time>
      </trkpt>
      <trkpt lat="48.2207" lon="6.70956">
        <ele>455.8</ele>
        <time>2025-01-15T16:00:21Z</time>
      </trkpt>
      <trkpt lat="48.22064" lon="6.70946">
        <ele>455</ele>
        <time>2025-01-15T16:00:30Z</time>
      </trkpt>
      <trkpt lat="48.22057" lon="6.70937">
        <ele>454.2</ele>
        <time>2025-01-15T16:00:38Z</time>
      </trkpt>
      <trkpt lat="48.2205" lon="6.70927">
        <ele>453.4</ele>
        <time>2025-01-15T16:00:46Z</time>
      </trkpt>
      <trkpt lat="48.22041" lon="6.70919">
        <ele>452.6</ele>
        <time>2025-01-15T16:00:55Z</time>
      </trkpt>
      <trkpt lat="48.22032" lon="6.70913">
        <ele>452</ele>
        <time>2025-01-15T16:01:02Z</time>
      </trkpt>
      <trkpt lat="48.22024" lon="6.70906">
        <ele>451.6</ele>
        <time>2025-01-15T16:01:10Z</time>
      </trkpt>
      <trkpt lat="48.22014" lon="6.70902">
        <ele>451.2</ele>
        <time>2025-01-15T16:01:19Z</time>
      </trkpt>
      <trkpt lat="48.22005" lon="6.70899">
        <ele>450.8</ele>
        <time>2025-01-15T16:01:26Z</time>
      </trkpt>
      <trkpt lat="48.21996" lon="6.70893">
        <ele>450.4</ele>
        <time>2025-01-15T16:01:33Z</time>
      </trkpt>
      <trkpt lat="48.21988" lon="6.70886">
        <ele>450.1</ele>
        <time>2025-01-15T16:01:41Z</time>
      </trkpt>
      <trkpt lat="48.2198" lon="6.70876">
        <ele>449.7</ele>
        <time>2025-01-15T16:01:50Z</time>
      </trkpt>
      <trkpt lat="48.21973" lon="6.70866">
        <ele>449.4</ele>
        <time>2025-01-15T16:02:00Z</time>
      </trkpt>
      <trkpt lat="48.21965" lon="6.70856">
        <ele>449.2</ele>
        <time>2025-01-15T16:02:09Z</time>
      </trkpt>
      <trkpt lat="48.21958" lon="6.70847">
        <ele>449</ele>
        <time>2025-01-15T16:02:17Z</time>
      </trkpt>
      <trkpt lat="48.2195" lon="6.70839">
        <ele>448.9</ele>
        <time>2025-01-15T16:02:25Z</time>
      </trkpt>
      <trkpt lat="48.21942" lon="6.70831">
        <ele>448.5</ele>
        <time>2025-01-15T16:02:33Z</time>
      </trkpt>
      <trkpt lat="48.21932" lon="6.70827">
        <ele>448.1</ele>
        <time>2025-01-15T16:02:41Z</time>
      </trkpt>
      <trkpt lat="48.21923" lon="6.70822">
        <ele>447.3</ele>
        <time>2025-01-15T16:02:49Z</time>
      </trkpt>
      <trkpt lat="48.21914" lon="6.70819">
        <ele>446.4</ele>
        <time>2025-01-15T16:02:56Z</time>
      </trkpt>
      <trkpt lat="48.21905" lon="6.70814">
        <ele>445.3</ele>
        <time>2025-01-15T16:03:02Z</time>
      </trkpt>
      <trkpt lat="48.21897" lon="6.70806">
        <ele>444.1</ele>
        <time>2025-01-15T16:03:09Z</time>
      </trkpt>
      <trkpt lat="48.21888" lon="6.70799">
        <ele>442.7</ele>
        <time>2025-01-15T16:03:18Z</time>
      </trkpt>
      <trkpt lat="48.2188" lon="6.70791">
        <ele>441.3</ele>
        <time>2025-01-15T16:03:26Z</time>
      </trkpt>
      <trkpt lat="48.21871" lon="6.70784">
        <ele>439.7</ele>
        <time>2025-01-15T16:03:33Z</time>
      </trkpt>
      <trkpt lat="48.21863" lon="6.70778">
        <ele>438.2</ele>
        <time>2025-01-15T16:03:39Z</time>
      </trkpt>
      <trkpt lat="48.21854" lon="6.70773">
        <ele>436.8</ele>
        <time>2025-01-15T16:03:45Z</time>
      </trkpt>
      <trkpt lat="48.21845" lon="6.7077">
        <ele>435.6</ele>
        <time>2025-01-15T16:03:52Z</time>
      </trkpt>
      <trkpt lat="48.21836" lon="6.70765">
        <ele>434.5</ele>
        <time>2025-01-15T16:03:58Z</time>
      </trkpt>
      <trkpt lat="48.21828" lon="6.7076">
        <ele>433.8</ele>
        <time>2025-01-15T16:04:05Z</time>
      </trkpt>
      <trkpt lat="48.21818" lon="6.70759">
        <ele>434.3</ele>
        <time>2025-01-15T16:04:14Z</time>
      </trkpt>
      <trkpt lat="48.21809" lon="6.70761">
        <ele>434.8</ele>
        <time>2025-01-15T16:04:23Z</time>
      </trkpt>
      <trkpt lat="48.21801" lon="6.70767">
        <ele>435.4</ele>
        <time>2025-01-15T16:04:31Z</time>
      </trkpt>
      <trkpt lat="48.21792" lon="6.7077">
        <ele>435.9</ele>
        <time>2025-01-15T16:04:38Z</time>
      </trkpt>
      <trkpt lat="48.21782" lon="6.70772">
        <ele>436.5</ele>
        <time>2025-01-15T16:04:46Z</time>
      </trkpt>
      <trkpt lat="48.21773" lon="6.70774">
        <ele>436.9</ele>
        <time>2025-01-15T16:04:53Z</time>
      </trkpt>
      <trkpt lat="48.21764" lon="6.70777">
        <ele>437.4</ele>
        <time>2025-01-15T16:05:01Z</time>
      </trkpt>
      <trkpt lat="48.21754" lon="6.7078">
        <ele>437.9</ele>
        <time>2025-01-15T16:05:09Z</time>
      </trkpt>
      <trkpt lat="48.21745" lon="6.70783">
        <ele>438.4</ele>
        <time>2025-01-15T16:05:17Z</time>
      </trkpt>
      <trkpt lat="48.21735" lon="6.70784">
        <ele>438.9</ele>
        <time>2025-01-15T16:05:25Z</time>
      </trkpt>
      <trkpt lat="48.21725" lon="6.70786">
        <ele>439.5</ele>
        <time>2025-01-15T16:05:33Z</time>
      </trkpt>
      <trkpt lat="48.21715" lon="6.70788">
        <ele>440.1</ele>
        <time>2025-01-15T16:05:41Z</time>
      </trkpt>
      <trkpt lat="48.21705" lon="6.7079">
        <ele>440.8</ele>
        <time>2025-01-15T16:05:49Z</time>
      </trkpt>
      <trkpt lat="48.21695" lon="6.70793">
        <ele>441.5</ele>
        <time>2025-01-15T16:05:57Z</time>
      </trkpt>
      <trkpt lat="48.21686" lon="6.70796">
        <ele>442.3</ele>
        <time>2025-01-15T16:06:05Z</time>
      </trkpt>
      <trkpt lat="48.21677" lon="6.708">
        <ele>443.1</ele>
        <time>2025-01-15T16:06:13Z</time>
      </trkpt>
      <trkpt lat="48.21667" lon="6.70805">
        <ele>444</ele>
        <time>2025-01-15T16:06:22Z</time>
      </trkpt>
      <trkpt lat="48.21658" lon="6.7081">
        <ele>445.1</ele>
        <time>2025-01-15T16:06:31Z</time>
      </trkpt>
      <trkpt lat="48.2165" lon="6.70817">
        <ele>446.1</ele>
        <time>2025-01-15T16:06:39Z</time>
      </trkpt>
      <trkpt lat="48.21641" lon="6.70823">
        <ele>447</ele>
        <time>2025-01-15T16:06:47Z</time>
      </trkpt>
      <trkpt lat="48.21634" lon="6.70832">
        <ele>448</ele>
        <time>2025-01-15T16:06:55Z</time>
      </trkpt>
      <trkpt lat="48.21628" lon="6.70843">
        <ele>449</ele>
        <time>2025-01-15T16:07:03Z</time>
      </trkpt>
      <trkpt lat="48.21622" lon="6.70854">
        <ele>450</ele>
        <time>2025-01-15T16:07:12Z</time>
      </trkpt>
      <trkpt lat="48.21617" lon="6.70867">
        <ele>450.9</ele>
        <time>2025-01-15T16:07:20Z</time>
      </trkpt>
      <trkpt lat="48.21612" lon="6.70878">
        <ele>451.9</ele>
        <time>2025-01-15T16:07:28Z</time>
      </trkpt>
      <trkpt lat="48.21606" lon="6.7089">
        <ele>452.8</ele>
        <time>2025-01-15T16:07:36Z</time>
      </trkpt>
      <trkpt lat="48.21602" lon="6.70903">
        <ele>453.5</ele>
        <time>2025-01-15T16:07:44Z</time>
      </trkpt>
      <trkpt lat="48.21597" lon="6.70917">
        <ele>454.1</ele>
        <time>2025-01-15T16:07:52Z</time>
      </trkpt>
      <trkpt lat="48.21594" lon="6.7093">
        <ele>454.5</ele>
        <time>2025-01-15T16:08:00Z</time>
      </trkpt>
      <trkpt lat="48.21589" lon="6.70943">
        <ele>454.7</ele>
        <time>2025-01-15T16:08:08Z</time>
      </trkpt>
      <trkpt lat="48.21584" lon="6.70956">
        <ele>454.8</ele>
        <time>2025-01-15T16:08:16Z</time>
      </trkpt>
      <trkpt lat="48.21579" lon="6.70967">
        <ele>454.7</ele>
        <time>2025-01-15T16:08:24Z</time>
      </trkpt>
      <trkpt lat="48.21574" lon="6.70979">
        <ele>454.5</ele>
        <time>2025-01-15T16:08:32Z</time>
      </trkpt>
      <trkpt lat="48.21569" lon="6.70991">
        <ele>454.2</ele>
        <time>2025-01-15T16:08:40Z</time>
      </trkpt>
      <trkpt lat="48.21564" lon="6.71002">
        <ele>453.8</ele>
        <time>2025-01-15T16:08:48Z</time>
      </trkpt>
      <trkpt lat="48.21558" lon="6.71014">
        <ele>453.4</ele>
        <time>2025-01-15T16:08:56Z</time>
      </trkpt>
      <trkpt lat="48.21553" lon="6.71026">
        <ele>453</ele>
        <time>2025-01-15T16:09:04Z</time>
      </trkpt>
      <trkpt lat="48.21548" lon="6.71038">
        <ele>452.6</ele>
        <time>2025-01-15T16:09:12Z</time>
      </trkpt>
      <trkpt lat="48.21542" lon="6.7105">
        <ele>452.4</ele>
        <time>2025-01-15T16:09:20Z</time>
      </trkpt>
      <trkpt lat="48.21537" lon="6.71062">
        <ele>452.2</ele>
        <time>2025-01-15T16:09:28Z</time>
      </trkpt>
      <trkpt lat="48.21532" lon="6.71074">
        <ele>452.1</ele>
        <time>2025-01-15T16:09:36Z</time>
      </trkpt>
      <trkpt lat="48.21526" lon="6.71085">
        <ele>452.1</ele>
        <time>2025-01-15T16:09:44Z</time>
      </trkpt>
      <trkpt lat="48.21519" lon="6.71096">
        <ele>452.1</ele>
        <time>2025-01-15T16:09:52Z</time>
      </trkpt>
      <trkpt lat="48.21512" lon="6.71106">
        <ele>452.2</ele>
        <time>2025-01-15T16:10:00Z</time>
      </trkpt>
      <trkpt lat="48.21505" lon="6.71115">
        <ele>452.3</ele>
        <time>2025-01-15T16:10:08Z</time>
      </trkpt>
      <trkpt lat="48.21498" lon="6.71124">
        <ele>452.5</ele>
        <time>2025-01-15T16:10:16Z</time>
      </trkpt>
      <trkpt lat="48.21492" lon="6.71134">
        <ele>452.6</ele>
        <time>2025-01-15T16:10:26Z</time>
      </trkpt>
      <trkpt lat="48.21485" lon="6.71144">
        <ele>452.8</ele>
        <time>2025-01-15T16:10:38Z</time>
      </trkpt>
      <trkpt lat="48.21484" lon="6.71145">
        <ele>452.8</ele>
        <time>2025-01-15T16:10:39Z</time>
      </trkpt>
      <trkpt lat="48.21484" lon="6.71146">
        <ele>452.8</ele>
        <time>2025-01-15T16:10:40Z</time>
      </trkpt>
      <trkpt lat="48.21483" lon="6.71147">
        <ele>452.8</ele>
        <time>2025-01-15T16:10:41Z</time>
      </trkpt>
      <trkpt lat="48.21476" lon="6.71158">
        <ele>453.1</ele>
        <time>2025-01-15T16:10:49Z</time>
      </trkpt>
      <trkpt lat="48.2147" lon="6.71168">
        <ele>453.4</ele>
        <time>2025-01-15T16:10:57Z</time>
      </trkpt>
      <trkpt lat="48.21463" lon="6.71179">
        <ele>453.7</ele>
        <time>2025-01-15T16:11:05Z</time>
      </trkpt>
      <trkpt lat="48.21456" lon="6.7119">
        <ele>454.1</ele>
        <time>2025-01-15T16:11:13Z</time>
      </trkpt>
      <trkpt lat="48.2145" lon="6.712">
        <ele>454.5</ele>
        <time>2025-01-15T16:11:21Z</time>
      </trkpt>
      <trkpt lat="48.21443" lon="6.7121">
        <ele>454.9</ele>
        <time>2025-01-15T16:11:29Z</time>
      </trkpt>
      <trkpt lat="48.21436" lon="6.71219">
        <ele>455.4</ele>
        <time>2025-01-15T16:11:37Z</time>
      </trkpt>
      <trkpt lat="48.21428" lon="6.71228">
        <ele>456</ele>
        <time>2025-01-15T16:11:46Z</time>
      </trkpt>
      <trkpt lat="48.2142" lon="6.71236">
        <ele>456.6</ele>
        <time>2025-01-15T16:11:55Z</time>
      </trkpt>
      <trkpt lat="48.21412" lon="6.71245">
        <ele>457.2</ele>
        <time>2025-01-15T16:12:04Z</time>
      </trkpt>
      <trkpt lat="48.21403" lon="6.71253">
        <ele>457.8</ele>
        <time>2025-01-15T16:12:13Z</time>
      </trkpt>
      <trkpt lat="48.21396" lon="6.71262">
        <ele>458.4</ele>
        <time>2025-01-15T16:12:21Z</time>
      </trkpt>
      <trkpt lat="48.21386" lon="6.71267">
        <ele>459.1</ele>
        <time>2025-01-15T16:12:29Z</time>
      </trkpt>
      <trkpt lat="48.21378" lon="6.71275">
        <ele>459.8</ele>
        <time>2025-01-15T16:12:37Z</time>
      </trkpt>
      <trkpt lat="48.21371" lon="6.71285">
        <ele>460.2</ele>
        <time>2025-01-15T16:12:45Z</time>
      </trkpt>
      <trkpt lat="48.21364" lon="6.71293">
        <ele>460.5</ele>
        <time>2025-01-15T16:12:52Z</time>
      </trkpt>
      <trkpt lat="48.21354" lon="6.71299">
        <ele>461.6</ele>
        <time>2025-01-15T16:13:00Z</time>
      </trkpt>
      <trkpt lat="48.21346" lon="6.71306">
        <ele>462.8</ele>
        <time>2025-01-15T16:13:08Z</time>
      </trkpt>
      <trkpt lat="48.21338" lon="6.71313">
        <ele>463.4</ele>
        <time>2025-01-15T16:13:17Z</time>
      </trkpt>
      <trkpt lat="48.21334" lon="6.71326">
        <ele>463.9</ele>
        <time>2025-01-15T16:13:30Z</time>
      </trkpt>
      <trkpt lat="48.21325" lon="6.71329">
        <ele>464.4</ele>
        <time>2025-01-15T16:13:38Z</time>
      </trkpt>
      <trkpt lat="48.21315" lon="6.71329">
        <ele>464.9</ele>
        <time>2025-01-15T16:13:46Z</time>
      </trkpt>
      <trkpt lat="48.21305" lon="6.71328">
        <ele>465.5</ele>
        <time>2025-01-15T16:13:54Z</time>
      </trkpt>
      <trkpt lat="48.21295" lon="6.71329">
        <ele>466</ele>
        <time>2025-01-15T16:14:02Z</time>
      </trkpt>
      <trkpt lat="48.21286" lon="6.7133">
        <ele>466.6</ele>
        <time>2025-01-15T16:14:10Z</time>
      </trkpt>
      <trkpt lat="48.21276" lon="6.71332">
        <ele>467.2</ele>
        <time>2025-01-15T16:14:18Z</time>
      </trkpt>
      <trkpt lat="48.21267" lon="6.71334">
        <ele>467.8</ele>
        <time>2025-01-15T16:14:26Z</time>
      </trkpt>
      <trkpt lat="48.21257" lon="6.71339">
        <ele>468.4</ele>
        <time>2025-01-15T16:14:34Z</time>
      </trkpt>
      <trkpt lat="48.21248" lon="6.71345">
        <ele>469.1</ele>
        <time>2025-01-15T16:14:42Z</time>
      </trkpt>
      <trkpt lat="48.21241" lon="6.71355">
        <ele>469.8</ele>
        <time>2025-01-15T16:14:50Z</time>
      </trkpt>
      <trkpt lat="48.21235" lon="6.71366">
        <ele>470.4</ele>
        <time>2025-01-15T16:14:58Z</time>
      </trkpt>
      <trkpt lat="48.21229" lon="6.71377">
        <ele>471</ele>
        <time>2025-01-15T16:15:06Z</time>
      </trkpt>
      <trkpt lat="48.21224" lon="6.71389">
        <ele>471.6</ele>
        <time>2025-01-15T16:15:14Z</time>
      </trkpt>
      <trkpt lat="48.21224" lon="6.71403">
        <ele>473.5</ele>
        <time>2025-01-15T16:15:23Z</time>
      </trkpt>
      <trkpt lat="48.21234" lon="6.71404">
        <ele>475.1</ele>
        <time>2025-01-15T16:15:32Z</time>
      </trkpt>
      <trkpt lat="48.21241" lon="6.71415">
        <ele>476.4</ele>
        <time>2025-01-15T16:15:42Z</time>
      </trkpt>
      <trkpt lat="48.21244" lon="6.71428">
        <ele>477.6</ele>
        <time>2025-01-15T16:15:51Z</time>
      </trkpt>
      <trkpt lat="48.21247" lon="6.71441">
        <ele>478.8</ele>
        <time>2025-01-15T16:16:00Z</time>
      </trkpt>
      <trkpt lat="48.21247" lon="6.71455">
        <ele>480.1</ele>
        <time>2025-01-15T16:16:09Z</time>
      </trkpt>
      <trkpt lat="48.21246" lon="6.71457">
        <ele>479.8</ele>
        <time>2025-01-15T16:16:15Z</time>
      </trkpt>
      <trkpt lat="48.21246" lon="6.71457">
        <ele>479.8</ele>
        <time>2025-01-15T16:16:16Z</time>
      </trkpt>
      <trkpt lat="48.21246" lon="6.71457">
        <ele>479.8</ele>
        <time>2025-01-15T16:16:17Z</time>
      </trkpt>
      <trkpt lat="48.21245" lon="6.71459">
        <ele>479.6</ele>
        <time>2025-01-15T16:16:33Z</time>
      </trkpt>
      <trkpt lat="48.21245" lon="6.7146">
        <ele>479.5</ele>
        <time>2025-01-15T16:16:34Z</time>
      </trkpt>
      <trkpt lat="48.21237" lon="6.7147">
        <ele>478.6</ele>
        <time>2025-01-15T16:16:43Z</time>
      </trkpt>
      <trkpt lat="48.21235" lon="6.71484">
        <ele>477.8</ele>
        <time>2025-01-15T16:16:52Z</time>
      </trkpt>
      <trkpt lat="48.21237" lon="6.71498">
        <ele>477</ele>
        <time>2025-01-15T16:17:01Z</time>
      </trkpt>
      <trkpt lat="48.21239" lon="6.71511">
        <ele>476.4</ele>
        <time>2025-01-15T16:17:09Z</time>
      </trkpt>
      <trkpt lat="48.21238" lon="6.71525">
        <ele>475.8</ele>
        <time>2025-01-15T16:17:18Z</time>
      </trkpt>
      <trkpt lat="48.21229" lon="6.71532">
        <ele>475.1</ele>
        <time>2025-01-15T16:17:27Z</time>
      </trkpt>
      <trkpt lat="48.21227" lon="6.71533">
        <ele>475</ele>
        <time>2025-01-15T16:17:33Z</time>
      </trkpt>
      <trkpt lat="48.21227" lon="6.71532">
        <ele>475</ele>
        <time>2025-01-15T16:17:34Z</time>
      </trkpt>
      <trkpt lat="48.21228" lon="6.71532">
        <ele>474.9</ele>
        <time>2025-01-15T16:17:35Z</time>
      </trkpt>
      <trkpt lat="48.21229" lon="6.71531">
        <ele>474.9</ele>
        <time>2025-01-15T16:17:36Z</time>
      </trkpt>
      <trkpt lat="48.21238" lon="6.71524">
        <ele>474.1</ele>
        <time>2025-01-15T16:17:44Z</time>
      </trkpt>
      <trkpt lat="48.21239" lon="6.71508">
        <ele>474.7</ele>
        <time>2025-01-15T16:17:56Z</time>
      </trkpt>
      <trkpt lat="48.21237" lon="6.71495">
        <ele>475.6</ele>
        <time>2025-01-15T16:18:03Z</time>
      </trkpt>
      <trkpt lat="48.21233" lon="6.71481">
        <ele>476.6</ele>
        <time>2025-01-15T16:18:10Z</time>
      </trkpt>
      <trkpt lat="48.21236" lon="6.71467">
        <ele>477.6</ele>
        <time>2025-01-15T16:18:21Z</time>
      </trkpt>
      <trkpt lat="48.21244" lon="6.71461">
        <ele>478.7</ele>
        <time>2025-01-15T16:18:28Z</time>
      </trkpt>
      <trkpt lat="48.21253" lon="6.71456">
        <ele>480</ele>
        <time>2025-01-15T16:18:37Z</time>
      </trkpt>
      <trkpt lat="48.2126" lon="6.71466">
        <ele>481.4</ele>
        <time>2025-01-15T16:18:45Z</time>
      </trkpt>
      <trkpt lat="48.21266" lon="6.71477">
        <ele>482.7</ele>
        <time>2025-01-15T16:18:52Z</time>
      </trkpt>
      <trkpt lat="48.21271" lon="6.71488">
        <ele>484</ele>
        <time>2025-01-15T16:18:59Z</time>
      </trkpt>
      <trkpt lat="48.21269" lon="6.71502">
        <ele>485.1</ele>
        <time>2025-01-15T16:19:06Z</time>
      </trkpt>
      <trkpt lat="48.21266" lon="6.71515">
        <ele>485.8</ele>
        <time>2025-01-15T16:19:13Z</time>
      </trkpt>
      <trkpt lat="48.21262" lon="6.71527">
        <ele>486.4</ele>
        <time>2025-01-15T16:19:20Z</time>
      </trkpt>
      <trkpt lat="48.21259" lon="6.71541">
        <ele>486.8</ele>
        <time>2025-01-15T16:19:27Z</time>
      </trkpt>
      <trkpt lat="48.21253" lon="6.71553">
        <ele>487.1</ele>
        <time>2025-01-15T16:19:34Z</time>
      </trkpt>
      <trkpt lat="48.21247" lon="6.71564">
        <ele>487.3</ele>
        <time>2025-01-15T16:19:41Z</time>
      </trkpt>
      <trkpt lat="48.21241" lon="6.71574">
        <ele>487.7</ele>
        <time>2025-01-15T16:19:48Z</time>
      </trkpt>
      <trkpt lat="48.21235" lon="6.71585">
        <ele>488.1</ele>
        <time>2025-01-15T16:19:55Z</time>
      </trkpt>
      <trkpt lat="48.2123" lon="6.71596">
        <ele>488.4</ele>
        <time>2025-01-15T16:20:02Z</time>
      </trkpt>
      <trkpt lat="48.21226" lon="6.71609">
        <ele>488.6</ele>
        <time>2025-01-15T16:20:10Z</time>
      </trkpt>
      <trkpt lat="48.21222" lon="6.71623">
        <ele>488.6</ele>
        <time>2025-01-15T16:20:18Z</time>
      </trkpt>
      <trkpt lat="48.21221" lon="6.71636">
        <ele>488.6</ele>
        <time>2025-01-15T16:20:25Z</time>
      </trkpt>
      <trkpt lat="48.21214" lon="6.71627">
        <ele>486.2</ele>
        <time>2025-01-15T16:20:37Z</time>
      </trkpt>
      <trkpt lat="48.2121" lon="6.71614">
        <ele>484.9</ele>
        <time>2025-01-15T16:20:45Z</time>
      </trkpt>
      <trkpt lat="48.21207" lon="6.71601">
        <ele>483.9</ele>
        <time>2025-01-15T16:20:53Z</time>
      </trkpt>
      <trkpt lat="48.21204" lon="6.71588">
        <ele>482.9</ele>
        <time>2025-01-15T16:21:00Z</time>
      </trkpt>
      <trkpt lat="48.21201" lon="6.71574">
        <ele>481.6</ele>
        <time>2025-01-15T16:21:08Z</time>
      </trkpt>
      <trkpt lat="48.212" lon="6.71561">
        <ele>479.9</ele>
        <time>2025-01-15T16:21:15Z</time>
      </trkpt>
      <trkpt lat="48.21196" lon="6.71547">
        <ele>478.6</ele>
        <time>2025-01-15T16:21:22Z</time>
      </trkpt>
      <trkpt lat="48.21192" lon="6.71533">
        <ele>477.3</ele>
        <time>2025-01-15T16:21:30Z</time>
      </trkpt>
      <trkpt lat="48.21188" lon="6.7152">
        <ele>475.8</ele>
        <time>2025-01-15T16:21:37Z</time>
      </trkpt>
      <trkpt lat="48.21183" lon="6.71508">
        <ele>474.4</ele>
        <time>2025-01-15T16:21:44Z</time>
      </trkpt>
      <trkpt lat="48.21177" lon="6.71497">
        <ele>473.7</ele>
        <time>2025-01-15T16:21:52Z</time>
      </trkpt>
      <trkpt lat="48.21168" lon="6.71494">
        <ele>473.3</ele>
        <time>2025-01-15T16:22:07Z</time>
      </trkpt>
      <trkpt lat="48.21162" lon="6.71505">
        <ele>473.4</ele>
        <time>2025-01-15T16:22:14Z</time>
      </trkpt>
      <trkpt lat="48.21156" lon="6.71516">
        <ele>473.5</ele>
        <time>2025-01-15T16:22:21Z</time>
      </trkpt>
      <trkpt lat="48.2115" lon="6.71526">
        <ele>473.6</ele>
        <time>2025-01-15T16:22:28Z</time>
      </trkpt>
      <trkpt lat="48.21145" lon="6.71538">
        <ele>473.7</ele>
        <time>2025-01-15T16:22:35Z</time>
      </trkpt>
      <trkpt lat="48.21141" lon="6.71551">
        <ele>473.8</ele>
        <time>2025-01-15T16:22:42Z</time>
      </trkpt>
      <trkpt lat="48.21136" lon="6.71563">
        <ele>474</ele>
        <time>2025-01-15T16:22:50Z</time>
      </trkpt>
      <trkpt lat="48.21133" lon="6.71578">
        <ele>474.1</ele>
        <time>2025-01-15T16:22:58Z</time>
      </trkpt>
      <trkpt lat="48.21129" lon="6.7159">
        <ele>474.3</ele>
        <time>2025-01-15T16:23:05Z</time>
      </trkpt>
      <trkpt lat="48.21125" lon="6.71613">
        <ele>474.6</ele>
        <time>2025-01-15T16:23:13Z</time>
      </trkpt>
      <trkpt lat="48.21124" lon="6.71622">
        <ele>474.7</ele>
        <time>2025-01-15T16:23:21Z</time>
      </trkpt>
      <trkpt lat="48.21123" lon="6.71632">
        <ele>474.8</ele>
        <time>2025-01-15T16:23:29Z</time>
      </trkpt>
      <trkpt lat="48.21122" lon="6.71641">
        <ele>474.9</ele>
        <time>2025-01-15T16:23:38Z</time>
      </trkpt>
      <trkpt lat="48.21121" lon="6.7165">
        <ele>475.1</ele>
        <time>2025-01-15T16:23:45Z</time>
      </trkpt>
      <trkpt lat="48.2112" lon="6.7166">
        <ele>475.2</ele>
        <time>2025-01-15T16:23:50Z</time>
      </trkpt>
      <trkpt lat="48.21119" lon="6.71669">
        <ele>475.3</ele>
        <time>2025-01-15T16:23:50Z</time>
      </trkpt>
      <trkpt lat="48.21119" lon="6.71669">
        <ele>475.3</ele>
        <time>2025-01-15T16:23:50Z</time>
      </trkpt>
    </trkseg>
  </trk>
</gpx>